Pagina principale
METAR-TAF:

METAR-TAF

Aeroporti :

Biserta, Tunisia

latitudine: 37-15N, longitudine: 009-48E, altezza: 5 m

Osservazione

Il bollettino è stato emesso 1 ora e 9 minuti fa, alle 00:00 UTC
Vento 3 kt da ovest/sud-ovest
Temperature 9°C
Umidità 87%
Pressione 1021 hPa
Visibilità 10 km o più
Poco nuvoloso ad un'altezza di 2000 ft

METAR: DTTB 170000Z 25003KT 9999 FEW020 09/07 Q1021

Ora: 02:09 (01:09 UTC)

Previsione

Il bollettino è stato emesso 3 ore e 50 minuti fa, alle 21:19 UTC
Previsione valida dal 16 alle 22 UTC al 17 alle 07 UTC
Vento 3 kt da direzioni variabili
Visibilità 10 km o più
Nubi sparse ad un'altezza di 1600 ft

TAF: DTTB 162119Z 1622/1707 VRB03KT 9999 SCT016

Osservazioni e previsioni meteorologiche di più di 4000 aeroporti (messaggi METAR e TAF).

Le stazioni disponibili sono rappresentate dai dischi gialli e rossi sulla carta.

Puntare il mouse per vedere il nome della stazione.

Clicca sopra per visualizzare le osservazioni e previsioni meteorologiche.

Per cambiare la mappa : fare clic sui pulsanti verdi con una croce nera per ingrandire, il pulsante verde con un trattino per diminuire, o sulla freccia verde per le mappe adiacenti.


METAR-TAF: